Bookmark and Share
Track history (hours):
 

Drifting buoy 13569

Last reported at 2013-Jan-27 16:10 UTC. Time now 2014-Apr-20 05:56 UTC.
Position N 33°31' W 045°26'.
Warning: this ship's position is years out of date!

Barometer 1015.4 mb
Water temperature 18.6 ° C

NotesDate/timePositionNaut miles runAvg speedWind from/ knotsBaromVisibWave heightAir tempDewpointWater temp
2013-Jan-27 16:10N 33°31' W 045°26'1 0.7 1015.4 18.6
2013-Jan-27 15:10N 33°31' W 045°27'21 1.0 1018.5 18.6
2013-Jan-26 18:10N 33°25' W 045°51'4 1.4 1021.7 18.7
2013-Jan-26 15:10N 33°25' W 045°56'14 1.0 1026.8 18.7
2013-Jan-26 01:10N 33°30' W 046°12'2 2.3 1018.3 18.6
2013-Jan-26 00:10N 33°31' W 046°14'7 1.8 1016.9 18.6
2013-Jan-25 20:10N 33°34' W 046°22'4 1.8 1010.6 18.7
2013-Jan-25 18:10N 33°36' W 046°26'3 3.0 1014.1 18.9
2013-Jan-25 17:10N 33°37' W 046°29'4 3.7 1015.0 19.0
2013-Jan-25 16:10N 33°36' W 046°33'1 0.6 1015.1 19.0
2013-Jan-25 14:10N 33°37' W 046°35'2 2.0 1016.8 19.0
2013-Jan-25 13:10N 33°36' W 046°37'2 1.8 1018.9 19.0
2013-Jan-25 12:10N 33°37' W 046°39'3 0.7 1018.4 19.0
2013-Jan-25 08:10N 33°36' W 046°42'0 0.0 1018.7 18.9
2013-Jan-25 07:10N 33°36' W 046°42'2 1.8 1019.3 18.9
2013-Jan-25 06:10N 33°37' W 046°45'0 0.4 1020.1 18.9
2013-Jan-25 05:10N 33°37' W 046°45'0 0.0 1020.4 18.9
2013-Jan-25 04:10N 33°37' W 046°45'3 2.8 1020.6 18.9
2013-Jan-25 03:10N 33°38' W 046°48'1 0.6 1021.3 18.9
2013-Jan-25 01:10N 33°38' W 046°50'0 0.0 1021.3 18.9
2013-Jan-24 23:10N 33°38' W 046°50'2 1.9 1020.6 18.7
2013-Jan-24 22:10N 33°38' W 046°52'1 1.4 1020.3 18.7
2013-Jan-24 21:10N 33°38' W 046°54'0 0.0 1019.9 18.8
2013-Jan-24 20:10N 33°38' W 046°54'1 1.3 1019.8 18.9
2013-Jan-24 19:10N 33°38' W 046°55'2 0.8 1019.9 18.9
2013-Jan-24 17:10N 33°38' W 046°57'1 1.1 1019.8 18.8
2013-Jan-24 16:10N 33°38' W 046°56'3 2.7 1020.0 18.8
2013-Jan-24 15:10N 33°38' W 046°59'2 2.0 1020.6 18.9
2013-Jan-24 14:10N 33°37' W 047°01'0 0.0 1021.5 19.0
2013-Jan-24 13:10N 33°37' W 047°01'2 1.6 1021.1 19.0
2013-Jan-24 12:10N 33°37' W 047°03'3 1.5 1020.6 19.0
2013-Jan-24 10:10N 33°37' W 047°07'0 0.0 1019.5 19.1
2013-Jan-24 09:10N 33°37' W 047°07'0 0.2 1018.9 19.1
2013-Jan-24 07:10N 33°36' W 047°07'2 1.6 1019.2 19.2
2013-Jan-24 06:10N 33°37' W 047°09'0 0.0 1019.6 19.2
2013-Jan-24 05:10N 33°37' W 047°09'2 2.1 1019.6 19.2
2013-Jan-24 04:10N 33°36' W 047°11'2 0.5 1019.1 19.1
2013-Jan-24 01:10N 33°37' W 047°13'2 1.9 1019.8 19.3
2013-Jan-24 00:10N 33°37' W 047°15'1 1.3 1019.5 19.3
2013-Jan-23 23:10N 33°37' W 047°17'0 0.2 1019.3 19.4
2013-Jan-23 22:10N 33°37' W 047°17'2 1.5 1019.0 19.4
2013-Jan-23 21:10N 33°37' W 047°19'0 0.0 1018.8 19.4
2013-Jan-23 20:10N 33°37' W 047°19'1 1.3 1018.6 19.4
2013-Jan-23 19:10N 33°37' W 047°21'3 2.9 1018.5 19.5
2013-Jan-23 18:10N 33°37' W 047°24'0 0.0 1018.4 19.5
2013-Jan-23 17:10N 33°37' W 047°24'0 0.3 1018.4 19.5
2013-Jan-23 16:10N 33°37' W 047°24'3 1.3 1019.3 19.5
2013-Jan-23 14:10N 33°36' W 047°27'0 0.1 1021.2 19.4
2013-Jan-23 12:10N 33°36' W 047°27'1 1.0 1021.4 19.4
2013-Jan-23 11:10N 33°35' W 047°28'0 0.0 1021.0 19.4
2013-Jan-23 10:10N 33°35' W 047°28'0 0.3 1020.3 19.4
2013-Jan-23 09:10N 33°35' W 047°28'1 0.7 1020.4 19.4
2013-Jan-23 07:10N 33°35' W 047°29'1 0.9 1020.7 19.5
2013-Jan-23 06:10N 33°36' W 047°30'1 1.4 1021.3 19.5
2013-Jan-23 05:10N 33°36' W 047°32'0 0.0 1021.2 19.5
2013-Jan-23 03:10N 33°36' W 047°32'0 0.0 1021.9 19.5
2013-Jan-23 02:10N 33°36' W 047°32'4 1.0 1022.3 19.5
2013-Jan-22 22:10N 33°34' W 047°36'0 0.0 1022.4 19.5
2013-Jan-22 21:10N 33°34' W 047°36'1 1.3 1022.0 19.5
2013-Jan-22 20:10N 33°33' W 047°37'1 0.5 1021.7 19.5
2013-Jan-22 19:10N 33°33' W 047°38'1 1.1 1021.7 19.5
2013-Jan-22 18:10N 33°32' W 047°39'1 0.6 1021.8 19.5
2013-Jan-22 17:10N 33°31' W 047°39'0 0.4 1021.1 19.5
2013-Jan-22 16:10N 33°31' W 047°39'2 1.5 1022.2 19.5
2013-Jan-22 15:10N 33°30' W 047°41'1 1.3 1023.8 19.5
2013-Jan-22 14:10N 33°29' W 047°42'0 0.0 1024.5 19.5
2013-Jan-22 13:10N 33°29' W 047°42'2 1.0 1023.8 19.5
2013-Jan-22 11:10N 33°28' W 047°43'0 0.0 1023.1 19.4
2013-Jan-22 10:10N 33°28' W 047°43'0 0.0 1022.5 19.4
2013-Jan-22 09:10N 33°28' W 047°43'1 1.4 1021.9 19.4
2013-Jan-22 08:10N 33°27' W 047°44'0 0.2 1022.2 19.4
2013-Jan-22 07:10N 33°27' W 047°44'1 0.9 1022.1 19.4
2013-Jan-22 06:10N 33°26' W 047°44'1 0.6 1022.7 19.5
2013-Jan-22 05:10N 33°25' W 047°44'0 0.0 1022.6 19.5
2013-Jan-22 04:10N 33°25' W 047°44'1 0.8 1023.2 19.5
2013-Jan-22 03:10N 33°24' W 047°44'0 0.0 1023.8 19.5
2013-Jan-22 00:10N 33°24' W 047°44'0 0.1 1023.2 19.5
2013-Jan-21 23:10N 33°24' W 047°44'1 0.9 1022.9 19.5
2013-Jan-21 22:10N 33°24' W 047°45'0 0.0 1022.3 19.5
2013-Jan-21 21:10N 33°24' W 047°45'2 0.5 1021.4 19.5
2013-Jan-21 17:10N 33°22' W 047°45'1 0.7 1022.7 19.5
2013-Jan-21 16:10N 33°21' W 047°46'0 0.0 1022.7 19.5
2013-Jan-21 15:10N 33°21' W 047°46'1 0.7 1025.6 19.4
2013-Jan-21 14:10N 33°21' W 047°46'0 0.4 1024.2 19.4
2013-Jan-21 13:10N 33°21' W 047°46'0 0.3 1024.4 19.4
2013-Jan-21 12:10N 33°21' W 047°47'0 0.4 1024.0 19.4
2013-Jan-21 11:10N 33°21' W 047°47'0 0.0 1024.0 19.4
2013-Jan-21 10:10N 33°21' W 047°47'0 0.1 1023.2 19.4
2013-Jan-21 08:10N 33°21' W 047°47'0 0.2 1022.7 19.4
2013-Jan-21 07:10N 33°21' W 047°47'0 0.2 1023.2 19.4
2013-Jan-21 06:10N 33°20' W 047°47'0 0.4 1024.0 19.4
2013-Jan-21 05:10N 33°20' W 047°48'0 0.0 1024.5 19.5
2013-Jan-21 04:10N 33°20' W 047°48'0 0.4 1024.8 19.5
2013-Jan-21 03:10N 33°20' W 047°47'0 0.1 1024.6 19.5
2013-Jan-21 01:10N 33°20' W 047°47'0 0.1 1024.4 19.5
2013-Jan-21 00:10N 33°20' W 047°47'1 0.3 1024.2 19.6
2013-Jan-20 21:10N 33°19' W 047°47'0 0.4 1023.0 19.7
2013-Jan-20 20:10N 33°18' W 047°48'0 0.0 1020.2 19.6
2013-Jan-20 19:10N 33°18' W 047°48'1 0.7 1024.9 19.9
2013-Jan-20 18:10N 33°18' W 047°47'0 0.2 1024.4 20.1
2013-Jan-20 17:10N 33°18' W 047°47'1 0.6 1024.6 20.1
2013-Jan-20 16:10N 33°17' W 047°46'0 0.3 1025.0 20.2
2013-Jan-20 15:10N 33°17' W 047°47'1 0.7 1026.9 19.8
2013-Jan-20 14:10N 33°17' W 047°46'0 0.4 1027.5 19.6
2013-Jan-20 13:10N 33°17' W 047°46'0 0.2 1028.5 19.5
2013-Jan-20 12:10N 33°17' W 047°46'0 0.1 1029.0 19.4
2013-Jan-20 11:10N 33°17' W 047°46'1 0.7 1029.8 19.4
2013-Jan-20 10:10N 33°18' W 047°45'0 0.1 1025.7 19.4
2013-Jan-20 07:10N 33°17' W 047°45'0 0.0 1025.0 19.4
2013-Jan-20 06:10N 33°17' W 047°45'0 0.3 1025.1 19.3
2013-Jan-20 05:10N 33°17' W 047°45'0 0.0 1025.2 19.4
2013-Jan-20 04:10N 33°17' W 047°45'0 0.0 1025.4 19.4
2013-Jan-20 03:10N 33°17' W 047°45'1 0.4 1025.9 19.4
2013-Jan-20 01:10N 33°16' W 047°44'0 0.2 1025.4 19.4
2013-Jan-19 23:10N 33°16' W 047°44'0 0.0 1024.8 19.4
2013-Jan-19 22:10N 33°16' W 047°44'0 0.2 1023.9 19.4
2013-Jan-19 21:10N 33°16' W 047°44'0 0.2 1022.4 19.4
2013-Jan-19 19:10N 33°16' W 047°44'0 0.0 1024.1 19.5
2013-Jan-19 18:10N 33°16' W 047°44'0 0.1 1023.9 19.5
2013-Jan-19 17:10N 33°16' W 047°44'1 0.6 1022.7 19.5
2013-Jan-19 16:10N 33°15' W 047°44'0 0.2 1024.6 19.4
2013-Jan-19 15:10N 33°16' W 047°43'1 1.2 1025.4 19.4
2013-Jan-19 14:10N 33°15' W 047°42'0 0.2 1025.6 19.3
2013-Jan-19 13:10N 33°15' W 047°43'0 0.2 1026.1 19.3
2013-Jan-19 12:10N 33°15' W 047°43'0 0.2 1026.2 19.3
2013-Jan-19 11:10N 33°15' W 047°43'0 0.0 1025.5 19.3
2013-Jan-19 10:10N 33°15' W 047°43'0 0.0 1024.1 19.3
2013-Jan-19 09:10N 33°15' W 047°43'1 0.7 1024.0 19.3
2013-Jan-19 08:10N 33°14' W 047°43'1 0.6 1023.8 19.4
2013-Jan-19 07:10N 33°14' W 047°44'0 0.1 1024.1 19.4
2013-Jan-19 06:10N 33°14' W 047°44'0 0.2 1025.4 19.4
2013-Jan-19 05:10N 33°13' W 047°44'1 1.0 1024.9 19.4
2013-Jan-19 04:10N 33°13' W 047°45'2 0.7 1024.6 19.4
2013-Jan-19 01:10N 33°11' W 047°45'0 0.0 1024.7 19.4
2013-Jan-19 00:10N 33°11' W 047°45'1 0.7 1025.4 19.4
2013-Jan-18 23:10N 33°10' W 047°45'1 0.7 1025.2 19.4
2013-Jan-18 21:10N 33°09' W 047°44'1 0.6 1023.8 19.3
2013-Jan-18 19:10N 33°08' W 047°44'1 0.8 1022.7 19.4
2013-Jan-18 18:10N 33°07' W 047°43'0 0.4 1023.0 19.4
2013-Jan-18 17:10N 33°07' W 047°43'1 0.7 1023.3 19.4
2013-Jan-18 16:10N 33°07' W 047°42'0 0.0 1025.4 19.4
2013-Jan-18 15:10N 33°07' W 047°42'0 0.2 1024.8 19.5
2013-Jan-18 14:10N 33°07' W 047°42'0 0.1 1027.7 19.4
2013-Jan-18 13:10N 33°07' W 047°42'0 0.0 1027.3 19.5
2013-Jan-18 12:10N 33°07' W 047°42'1 0.3 1028.0 19.4
2013-Jan-18 09:10N 33°06' W 047°43'0 0.0 1024.8 19.5
2013-Jan-18 08:10N 33°06' W 047°43'0 0.1 1025.3 19.5
2013-Jan-18 06:10N 33°06' W 047°43'0 0.2 1024.8 19.4
2013-Jan-18 05:10N 33°06' W 047°43'0 0.4 1025.0 19.4
2013-Jan-18 04:10N 33°06' W 047°43'0 0.0 1024.3 19.4
2013-Jan-18 03:10N 33°06' W 047°43'0 0.0 1024.2 19.4
2013-Jan-18 02:10N 33°06' W 047°43'0 0.0 1024.0 19.4
2013-Jan-18 01:10N 33°06' W 047°43'1 0.3 1024.1 19.4
2013-Jan-17 23:10N 33°06' W 047°42'1 0.5 1024.0 19.4
2013-Jan-17 22:10N 33°06' W 047°42'1 0.7 1022.9 19.4
2013-Jan-17 21:10N 33°06' W 047°42'2 1.8 1020.8 19.4
2013-Jan-17 20:10N 33°07' W 047°40'0 0.2 1020.3 19.4
2013-Jan-17 19:10N 33°07' W 047°41'1 1.5 1022.3 19.5
2013-Jan-17 18:10N 33°08' W 047°39'1 0.4 1022.1 19.5
2013-Jan-17 16:10N 33°08' W 047°39'   1023.0 19.4

Dump ship's entire track history

sailing weather and tide predictions

Buoy 13569